createdAt,value
2018-08-04T00:01:29.973Z,24.70
2018-08-04T00:04:03.855Z,24.70
2018-08-04T00:06:37.066Z,24.70
2018-08-04T00:09:12.398Z,24.60
2018-08-04T00:11:44.712Z,24.60
2018-08-04T00:14:17.408Z,24.50
2018-08-04T00:16:48.978Z,24.50
2018-08-04T00:19:21.906Z,24.50
2018-08-04T00:21:54.735Z,24.40
2018-08-04T00:24:28.427Z,24.50
2018-08-04T00:27:00.732Z,24.40
2018-08-04T00:29:33.305Z,24.40
2018-08-04T00:34:38.429Z,24.40
2018-08-04T00:37:10.876Z,24.30
2018-08-04T00:42:15.260Z,24.30
2018-08-04T00:44:47.829Z,24.30
2018-08-04T00:52:24.366Z,24.20
2018-08-04T00:54:56.891Z,24.20
2018-08-04T00:57:29.869Z,24.10
2018-08-04T01:00:04.188Z,24.10
2018-08-04T01:02:36.875Z,24.10
2018-08-04T01:05:06.559Z,24.10
2018-08-04T01:07:39.050Z,24.10
2018-08-04T01:10:12.039Z,24.10
2018-08-04T01:12:45.122Z,24.00
2018-08-04T01:15:17.917Z,24.10
2018-08-04T01:17:51.247Z,24.00
2018-08-04T01:20:22.137Z,24.00
2018-08-04T01:22:54.503Z,24.00
2018-08-04T01:25:24.331Z,24.00
2018-08-04T01:27:55.006Z,23.90
2018-08-04T01:30:25.948Z,23.90
2018-08-04T01:32:56.413Z,23.90
2018-08-04T01:35:28.452Z,23.90
2018-08-04T01:37:58.013Z,23.80
2018-08-04T01:40:27.066Z,23.80
2018-08-04T01:42:56.194Z,23.70
2018-08-04T01:45:25.269Z,23.70
2018-08-04T01:47:54.326Z,23.70
2018-08-04T01:50:23.949Z,23.70
2018-08-04T01:52:53.063Z,23.70
2018-08-04T01:55:25.337Z,23.70
2018-08-04T01:57:55.311Z,23.60
2018-08-04T02:00:25.704Z,23.60
2018-08-04T02:02:54.810Z,23.60
2018-08-04T02:05:23.837Z,23.60
2018-08-04T02:07:52.926Z,23.60
2018-08-04T02:10:23.947Z,23.60
2018-08-04T02:15:23.476Z,23.50
2018-08-04T02:17:52.562Z,23.60
2018-08-04T02:20:22.521Z,23.50
2018-08-04T02:25:20.794Z,23.50
2018-08-04T02:27:49.969Z,23.50
2018-08-04T02:30:19.067Z,23.50
2018-08-04T02:32:48.147Z,23.50
2018-08-04T02:35:25.198Z,23.50
2018-08-04T02:37:58.470Z,23.50
2018-08-04T02:45:29.719Z,23.40
2018-08-04T02:47:58.855Z,23.40
2018-08-04T02:50:30.172Z,23.40
2018-08-04T02:53:06.671Z,23.40
2018-08-04T02:55:35.964Z,23.30
2018-08-04T02:58:07.976Z,23.30
2018-08-04T03:00:40.160Z,23.30
2018-08-04T03:05:41.018Z,23.30
2018-08-04T03:08:12.872Z,23.20
2018-08-04T03:10:44.250Z,23.20
2018-08-04T03:15:46.155Z,23.20
2018-08-04T03:18:17.517Z,23.20
2018-08-04T03:20:49.193Z,23.20
2018-08-04T03:23:21.996Z,23.20
2018-08-04T03:25:53.502Z,23.20
2018-08-04T03:28:25.250Z,23.20
2018-08-04T03:30:57.877Z,23.20
2018-08-04T03:33:29.875Z,23.20
2018-08-04T03:36:02.168Z,23.20
2018-08-04T03:38:34.866Z,23.10
2018-08-04T03:41:07.680Z,23.20
2018-08-04T03:46:10.455Z,23.10
2018-08-04T03:48:42.527Z,23.20
2018-08-04T03:51:14.292Z,23.20
2018-08-04T03:53:45.763Z,23.20
2018-08-04T03:56:17.604Z,23.20
2018-08-04T03:58:49.382Z,23.20
2018-08-04T04:01:18.767Z,23.30
2018-08-04T04:03:47.792Z,23.30
2018-08-04T04:06:16.869Z,23.30
2018-08-04T04:11:14.707Z,23.30
2018-08-04T04:13:43.815Z,23.30
2018-08-04T04:16:12.882Z,23.40
2018-08-04T04:18:41.928Z,23.40
2018-08-04T04:21:11.015Z,23.40
2018-08-04T04:23:40.811Z,23.40
2018-08-04T04:26:09.895Z,23.40
2018-08-04T04:28:39.518Z,23.40
2018-08-04T04:31:08.559Z,23.40
2018-08-04T04:33:37.722Z,23.50
2018-08-04T04:36:06.807Z,23.50
2018-08-04T04:38:35.939Z,23.50
2018-08-04T04:41:05.072Z,23.60
2018-08-04T04:43:34.140Z,23.60
2018-08-04T04:46:03.215Z,23.60
2018-08-04T04:53:29.723Z,23.70
2018-08-04T04:55:59.156Z,23.80
2018-08-04T04:58:28.298Z,23.80
2018-08-04T05:00:58.070Z,23.80
2018-08-04T05:03:27.127Z,23.90
2018-08-04T05:05:56.231Z,23.90
2018-08-04T05:08:25.298Z,24.00
2018-08-04T05:10:54.382Z,24.00
2018-08-04T05:13:23.444Z,24.10
2018-08-04T05:15:52.451Z,24.10
2018-08-04T05:23:19.208Z,24.20
2018-08-04T05:25:48.282Z,24.30
2018-08-04T05:28:17.361Z,24.30
2018-08-04T05:30:46.525Z,24.40
2018-08-04T05:33:15.606Z,24.40
2018-08-04T05:38:13.941Z,24.60
2018-08-04T05:40:43.077Z,24.60
2018-08-04T05:45:40.895Z,24.80
2018-08-04T05:48:09.977Z,24.90
2018-08-04T05:50:39.081Z,24.90
2018-08-04T05:53:08.120Z,25.00
2018-08-04T05:55:37.216Z,25.10
2018-08-04T05:58:06.802Z,25.10
2018-08-04T06:00:35.874Z,25.20
2018-08-04T06:03:05.978Z,25.30
2018-08-04T06:05:35.055Z,25.40
2018-08-04T06:10:32.872Z,25.60
2018-08-04T06:13:01.967Z,25.70
2018-08-04T06:15:31.061Z,25.80
2018-08-04T06:18:00.533Z,25.90
2018-08-04T06:22:58.318Z,26.10
2018-08-04T06:27:56.086Z,26.40
2018-08-04T06:32:57.670Z,26.50
2018-08-04T06:35:32.825Z,26.50
2018-08-04T06:38:04.360Z,26.60
2018-08-04T06:40:33.745Z,26.70
2018-08-04T06:48:00.429Z,27.40
2018-08-04T06:52:58.739Z,27.70
2018-08-04T06:55:27.899Z,27.80
2018-08-04T06:57:57.194Z,27.90
2018-08-04T07:02:55.381Z,27.90
2018-08-04T07:07:53.343Z,28.00
2018-08-04T07:10:22.396Z,28.00
2018-08-04T07:12:51.493Z,28.00
2018-08-04T07:15:20.554Z,28.10
2018-08-04T07:20:18.293Z,28.30
2018-08-04T07:22:47.363Z,28.30
2018-08-04T07:25:16.413Z,28.50
2018-08-04T07:27:45.558Z,28.60
2018-08-04T07:30:15.606Z,28.60
2018-08-04T07:32:45.702Z,28.70
2018-08-04T07:35:14.848Z,28.80
2018-08-04T07:37:44.178Z,28.90
2018-08-04T07:40:13.263Z,29.10
2018-08-04T07:42:42.536Z,29.10
2018-08-04T07:47:40.415Z,29.30
2018-08-04T07:50:09.535Z,29.40
2018-08-04T07:52:39.367Z,29.60
2018-08-04T07:55:08.466Z,29.70
2018-08-04T07:57:37.541Z,29.90
2018-08-04T08:00:07.573Z,30.10
2018-08-04T08:02:36.826Z,30.20
2018-08-04T08:10:03.844Z,30.50
2018-08-04T08:12:33.006Z,30.30
2018-08-04T08:15:02.074Z,30.20
2018-08-04T08:17:32.216Z,30.30
2018-08-04T08:20:01.471Z,30.50
2018-08-04T08:22:37.710Z,30.70
2018-08-04T08:25:07.856Z,30.90
2018-08-04T08:27:37.402Z,31.00
2018-08-04T08:32:37.387Z,31.00
2018-08-04T08:35:06.883Z,31.20
2018-08-04T08:37:36.000Z,31.30
2018-08-04T08:42:34.010Z,31.70
2018-08-04T08:45:04.425Z,31.70
2018-08-04T08:47:33.580Z,31.70
2018-08-04T08:50:04.058Z,31.80
2018-08-04T08:52:35.405Z,31.60
2018-08-04T08:55:04.939Z,31.70
2018-08-04T08:57:34.395Z,31.60
2018-08-04T09:00:04.160Z,31.80
2018-08-04T09:02:33.213Z,31.80
2018-08-04T09:05:02.365Z,31.80
2018-08-04T09:07:31.464Z,31.80
2018-08-04T09:10:00.589Z,31.90
2018-08-04T09:14:59.204Z,32.20
2018-08-04T09:17:28.451Z,32.20
2018-08-04T09:19:58.274Z,32.30
2018-08-04T09:24:56.058Z,32.50
2018-08-04T09:29:53.936Z,32.60
2018-08-04T09:34:51.745Z,32.80
2018-08-04T09:39:49.609Z,32.70
2018-08-04T09:44:47.403Z,32.30
2018-08-04T09:49:45.204Z,32.40
2018-08-04T09:52:14.299Z,32.60
2018-08-04T09:54:43.371Z,32.60
2018-08-04T09:57:12.449Z,32.80
2018-08-04T10:07:09.421Z,32.60
2018-08-04T10:12:07.401Z,32.70
2018-08-04T10:14:36.516Z,32.60
2018-08-04T10:19:34.839Z,32.90
2018-08-04T10:22:04.067Z,33.30
2018-08-04T10:24:33.827Z,33.60
2018-08-04T10:27:03.026Z,33.60
2018-08-04T10:29:32.121Z,33.60
2018-08-04T10:32:01.368Z,34.10
2018-08-04T10:34:30.457Z,34.30
2018-08-04T10:36:59.606Z,34.30
2018-08-04T10:39:28.686Z,34.20
2018-08-04T10:41:57.800Z,34.00
2018-08-04T10:44:26.872Z,34.00
2018-08-04T10:46:56.113Z,34.10
2018-08-04T10:49:25.618Z,34.30
2018-08-04T10:51:54.829Z,34.40
2018-08-04T10:59:21.425Z,34.70
2018-08-04T11:01:54.878Z,34.60
2018-08-04T11:04:25.518Z,34.70
2018-08-04T11:06:56.255Z,35.10
2018-08-04T11:09:25.424Z,35.30
2018-08-04T11:11:54.462Z,35.50
2018-08-04T11:16:53.190Z,34.80
2018-08-04T11:19:22.282Z,34.70
2018-08-04T11:21:51.341Z,35.10
2018-08-04T11:24:20.456Z,34.90
2018-08-04T11:29:18.935Z,34.70
2018-08-04T11:34:16.911Z,34.40
2018-08-04T11:36:46.003Z,34.40
2018-08-04T11:39:15.022Z,34.10
2018-08-04T11:41:44.130Z,34.00
2018-08-04T11:44:13.170Z,34.30
2018-08-04T11:46:42.190Z,34.80
2018-08-04T11:51:40.100Z,35.00
2018-08-04T11:54:09.127Z,35.00
2018-08-04T11:56:38.215Z,34.80
2018-08-04T11:59:07.355Z,35.10
2018-08-04T12:01:36.687Z,35.20
2018-08-04T12:04:05.762Z,35.20
2018-08-04T12:09:04.337Z,34.80
2018-08-04T12:11:33.454Z,34.80
2018-08-04T12:14:02.854Z,34.80
2018-08-04T12:16:31.982Z,35.20
2018-08-04T12:19:01.223Z,35.80
2018-08-04T12:21:30.317Z,35.70
2018-08-04T12:23:59.626Z,35.50
2018-08-04T12:28:57.598Z,35.40
2018-08-04T12:31:27.542Z,35.80
2018-08-04T12:33:56.715Z,36.00
2018-08-04T12:38:54.577Z,36.60
2018-08-04T12:43:52.401Z,37.50
2018-08-04T12:46:21.427Z,37.90
2018-08-04T12:48:50.953Z,37.90
2018-08-04T12:51:19.983Z,37.70
2018-08-04T12:53:49.108Z,37.10
2018-08-04T12:56:18.838Z,36.50
2018-08-04T12:58:47.910Z,36.40
2018-08-04T13:01:17.149Z,37.10
2018-08-04T13:06:14.981Z,38.50
2018-08-04T13:08:44.194Z,39.70
2018-08-04T13:13:42.317Z,41.60
2018-08-04T13:18:41.185Z,41.50
2018-08-04T13:21:10.256Z,40.70
2018-08-04T13:23:39.350Z,40.90
2018-08-04T13:26:08.527Z,41.60
2018-08-04T13:28:37.790Z,42.70
2018-08-04T13:31:06.899Z,42.30
2018-08-04T13:38:33.346Z,44.40
2018-08-04T13:41:02.506Z,44.10
2018-08-04T13:43:31.684Z,44.20
2018-08-04T13:46:00.805Z,43.60
2018-08-04T13:48:29.941Z,44.50
2018-08-04T13:53:27.730Z,43.80
2018-08-04T13:55:58.529Z,43.70
2018-08-04T14:00:56.265Z,45.00
2018-08-04T14:03:25.357Z,44.80
2018-08-04T14:05:54.495Z,44.60
2018-08-04T14:10:52.345Z,44.20
2018-08-04T14:13:21.502Z,44.30
2018-08-04T14:15:50.599Z,43.80
2018-08-04T14:18:19.658Z,42.50
2018-08-04T14:20:48.774Z,41.90
2018-08-04T14:23:17.917Z,41.30
2018-08-04T14:25:46.978Z,40.30
2018-08-04T14:28:16.037Z,40.30
2018-08-04T14:30:45.136Z,42.10
2018-08-04T14:33:14.317Z,42.40
2018-08-04T14:35:44.168Z,43.50
2018-08-04T14:38:13.286Z,44.50
2018-08-04T14:40:42.398Z,45.90
2018-08-04T14:43:11.521Z,47.60
2018-08-04T14:48:09.633Z,48.40
2018-08-04T14:50:38.808Z,48.30
2018-08-04T14:53:07.895Z,47.60
2018-08-04T14:55:36.950Z,47.90
2018-08-04T14:58:06.157Z,47.80
2018-08-04T15:00:35.323Z,46.60
2018-08-04T15:03:04.432Z,44.60
2018-08-04T15:05:33.843Z,44.40
2018-08-04T15:08:02.955Z,42.50
2018-08-04T15:10:32.034Z,40.10
2018-08-04T15:13:01.110Z,38.30
2018-08-04T15:15:30.306Z,39.60
2018-08-04T15:17:59.371Z,42.00
2018-08-04T15:20:28.414Z,42.50
2018-08-04T15:22:57.489Z,41.70
2018-08-04T15:25:27.187Z,42.00
2018-08-04T15:27:56.692Z,42.50
2018-08-04T15:30:25.745Z,42.70
2018-08-04T15:35:23.513Z,42.40
2018-08-04T15:37:52.594Z,42.20
2018-08-04T15:40:21.651Z,42.50
2018-08-04T15:42:50.930Z,42.60
2018-08-04T15:45:20.050Z,43.80
2018-08-04T15:47:49.065Z,44.30
2018-08-04T15:50:18.141Z,45.30
2018-08-04T15:52:47.250Z,44.10
2018-08-04T15:55:16.989Z,44.20
2018-08-04T16:00:14.800Z,43.40
2018-08-04T16:02:43.909Z,44.20
2018-08-04T16:05:12.969Z,43.90
2018-08-04T16:07:42.083Z,43.20
2018-08-04T16:10:11.170Z,42.70
2018-08-04T16:12:40.230Z,42.80
2018-08-04T16:15:09.342Z,42.60
2018-08-04T16:17:38.386Z,42.50
2018-08-04T16:20:13.224Z,41.80
2018-08-04T16:22:42.285Z,42.20
2018-08-04T16:25:11.377Z,42.20
2018-08-04T16:27:40.718Z,42.30
2018-08-04T16:30:10.397Z,40.50
2018-08-04T16:32:39.993Z,38.90
2018-08-04T16:35:10.024Z,37.50
2018-08-04T16:37:39.063Z,36.60
2018-08-04T16:40:08.167Z,35.80
2018-08-04T16:42:37.257Z,35.50
2018-08-04T16:45:06.393Z,34.90
2018-08-04T16:47:35.601Z,34.40
2018-08-04T16:50:04.609Z,34.30
2018-08-04T16:52:33.708Z,34.20
2018-08-04T16:55:03.361Z,34.00
2018-08-04T16:57:32.475Z,33.70
2018-08-04T17:00:01.470Z,33.60
2018-08-04T17:02:30.554Z,33.50
2018-08-04T17:04:59.921Z,33.30
2018-08-04T17:07:28.934Z,33.20
2018-08-04T17:09:58.000Z,33.00
2018-08-04T17:14:55.854Z,32.90
2018-08-04T17:17:24.937Z,32.90
2018-08-04T17:27:20.100Z,32.30
2018-08-04T17:37:15.320Z,32.00
2018-08-04T17:44:42.824Z,31.70
2018-08-04T17:47:11.920Z,31.70
2018-08-04T17:49:41.010Z,31.50
2018-08-04T17:52:10.209Z,31.40
2018-08-04T17:57:08.189Z,31.00
2018-08-04T17:59:37.294Z,31.00
2018-08-04T18:02:06.505Z,31.00
2018-08-04T18:07:04.331Z,30.80
2018-08-04T18:09:33.559Z,30.70
2018-08-04T18:12:02.844Z,30.60
2018-08-04T18:14:31.960Z,30.60
2018-08-04T18:19:29.912Z,30.50
2018-08-04T18:22:00.114Z,30.40
2018-08-04T18:24:29.318Z,30.20
2018-08-04T18:26:58.687Z,30.10
2018-08-04T18:29:27.924Z,30.00
2018-08-04T18:31:57.028Z,29.90
2018-08-04T18:34:26.209Z,29.80
2018-08-04T18:36:55.371Z,29.70
2018-08-04T18:39:25.261Z,29.60
2018-08-04T18:41:54.377Z,29.50
2018-08-04T18:44:23.561Z,29.50
2018-08-04T18:46:52.732Z,29.30
2018-08-04T18:51:51.563Z,29.20
2018-08-04T18:54:20.722Z,29.20
2018-08-04T18:56:49.946Z,29.10
2018-08-04T18:59:19.169Z,29.10
2018-08-04T19:01:48.319Z,29.10
2018-08-04T19:06:46.455Z,28.90
2018-08-04T19:09:15.645Z,28.90
2018-08-04T19:11:44.753Z,28.80
2018-08-04T19:14:13.996Z,28.70
2018-08-04T19:19:11.968Z,28.50
2018-08-04T19:21:41.263Z,28.50
2018-08-04T19:24:10.290Z,28.40
2018-08-04T19:26:39.571Z,28.30
2018-08-04T19:31:37.543Z,28.10
2018-08-04T19:36:35.935Z,27.80
2018-08-04T19:39:07.468Z,27.80
2018-08-04T19:41:36.889Z,27.70
2018-08-04T19:44:06.500Z,27.60
2018-08-04T19:46:35.538Z,27.50
2018-08-04T19:49:04.699Z,27.40
2018-08-04T19:51:34.189Z,27.40
2018-08-04T19:54:03.461Z,27.30
2018-08-04T19:56:32.848Z,27.20
2018-08-04T19:59:02.062Z,27.10
2018-08-04T20:01:32.136Z,27.10
2018-08-04T20:04:01.193Z,27.00
2018-08-04T20:13:57.723Z,27.00
2018-08-04T20:16:26.813Z,26.90
2018-08-04T20:18:55.945Z,26.90
2018-08-04T20:21:25.086Z,26.80
2018-08-04T20:23:54.238Z,26.80
2018-08-04T20:26:23.618Z,26.70
2018-08-04T20:28:53.049Z,26.70
2018-08-04T20:33:51.499Z,26.60
2018-08-04T20:36:20.615Z,26.60
2018-08-04T20:38:50.091Z,26.60
2018-08-04T20:41:19.502Z,26.60
2018-08-04T20:43:48.561Z,26.50
2018-08-04T20:46:17.826Z,26.50
2018-08-04T20:48:46.922Z,26.50
2018-08-04T20:51:16.027Z,26.40
2018-08-04T20:56:13.734Z,26.30
2018-08-04T20:58:45.533Z,26.40
2018-08-04T21:01:25.979Z,26.30
2018-08-04T21:03:55.013Z,26.30
2018-08-04T21:08:52.746Z,26.20
2018-08-04T21:11:21.888Z,26.20
2018-08-04T21:18:48.392Z,26.20
2018-08-04T21:21:17.507Z,26.10
2018-08-04T21:23:46.615Z,26.10
2018-08-04T21:26:15.738Z,26.00
2018-08-04T21:31:13.566Z,25.90
2018-08-04T21:33:43.032Z,25.90
2018-08-04T21:36:12.126Z,25.90
2018-08-04T21:38:41.240Z,25.90
2018-08-04T21:41:10.320Z,25.90
2018-08-04T21:43:39.321Z,25.80
2018-08-04T21:46:08.386Z,25.70
2018-08-04T21:48:37.528Z,25.70
2018-08-04T21:51:06.669Z,25.60
2018-08-04T21:53:35.771Z,25.60
2018-08-04T21:58:33.620Z,25.60
2018-08-04T22:01:08.131Z,25.60
2018-08-04T22:03:37.329Z,25.60
2018-08-04T22:06:06.699Z,25.50
2018-08-04T22:08:47.315Z,25.50
2018-08-04T22:13:45.252Z,25.40
2018-08-04T22:16:14.335Z,25.40
2018-08-04T22:18:43.729Z,25.40
2018-08-04T22:21:12.774Z,25.30
2018-08-04T22:23:41.854Z,25.30
2018-08-04T22:26:11.280Z,25.20
2018-08-04T22:28:40.386Z,25.10
2018-08-04T22:31:09.574Z,25.10
2018-08-04T22:33:38.761Z,25.10
2018-08-04T22:36:08.040Z,25.10
2018-08-04T22:38:37.273Z,25.10
2018-08-04T22:41:06.887Z,25.10
2018-08-04T22:43:36.130Z,25.00
2018-08-04T22:46:10.597Z,25.10
2018-08-04T22:48:40.122Z,25.10
2018-08-04T22:53:38.127Z,25.00
2018-08-04T22:56:07.268Z,25.00
2018-08-04T22:58:36.385Z,24.90
2018-08-04T23:01:05.712Z,24.90
2018-08-04T23:03:34.817Z,24.90
2018-08-04T23:06:03.864Z,24.90
2018-08-04T23:08:35.220Z,24.90
2018-08-04T23:11:05.543Z,24.80
2018-08-04T23:13:34.666Z,24.80
2018-08-04T23:16:04.060Z,24.80
2018-08-04T23:18:33.140Z,24.70
2018-08-04T23:26:00.105Z,24.70
2018-08-04T23:33:29.315Z,24.50
2018-08-04T23:38:30.191Z,24.60
2018-08-04T23:43:33.437Z,24.60
2018-08-04T23:46:04.625Z,24.60
2018-08-04T23:51:06.783Z,24.50
2018-08-04T23:53:38.961Z,24.50
2018-08-04T23:56:08.437Z,24.50
2018-08-04T23:58:37.675Z,24.40
